Washington, DC (20088)

1:12 AM EDT on September 24, 2014 (GMT -0400)
Somerset | Change Station
CLOSE
Current Station
Personal Weather Station
Location: Chevy Chase, MD
Elevation: 330 ft
Nearby Weather Stations

Elev 330 ft 38.97 °N, 77.09 °W | Updated 2 minutes ago

Partly Cloudy
Partly Cloudy
53.4 °F
Feels Like 53.4 °F
N
0.0
Wind Variable Wind from NE
Gusts 0.0 mph

Today
High -- | Low -- °F
--% Chance of Precip.
Yesterday
High -- | Low -- °F
Precip. -- in
6:57 AM 7:02 PM
Waning Crescent, 0% visible
Pressure 30.40 in
Visibility 10.0 miles
Clouds Clear
Dew Point 49 °F
Humidity 86%
Rainfall 0.00 in
Snow Depth Not available.
UV 0 out of 12
Pollen 3.80 out of 12
Air Quality Not available.
Flu Activity Not available.
METAR KCGS 240450Z AUTO 00000KT 10SM CLR 12/11 A3040 RMK AO1

More Conditions Fewer Conditions

Pressure 30.40 in
Visibility 10.0 miles
Clouds Clear
Dew Point 49 °F
Humidity 86%
Rainfall 0.00 in
Snow Depth Not available.
UV 0 out of 12
Pollen 3.80 out of 12
Air Quality Not available.
Flu Activity Not available.
METAR KCGS 240450Z AUTO 00000KT 10SM CLR 12/11 A3040 RMK AO1

More Conditions Fewer Conditions

10-Day Weather Forecast

Almanac

Astronomy

Sep. 24, 2014 Rise Set
Actual Time 6:57 AM EDT 7:02 PM EDT
Civil Twilight 6:31 AM EDT 7:28 PM EDT
Nautical Twilight 5:59 AM EDT 7:59 PM EDT
Astronomical Twilight 5:28 AM EDT 8:31 PM EDT
Moon 7:15 AM EDT 7:12 PM EDT
Length of Visible Light 12h 57m
Length of Day
12h 04m
Tomorrow will be 2m 31s shorter.
Waning Crescent, 0% of the Moon is Illuminated
Today
Waning Crescent
Sep 24
New
Oct 1
First Quarter
Oct 8
Full
Oct 15
Last Quarter

Today's Extremes

State Highs State Lows

Community

WunderPhotos

Upload Photos

1,755,891 photos uploaded!

WunderBlogs® & News

Nearby

Snow Depth

Station Depth Elevation
No new snow has been reported.

Earthquake Activity

City Distance Mag. Time & Date
No recent earthquake activity has been reported nearby.
Minimum magnitude displayed is 2.5.

Coastal Water Temperatures

Place Temperature
Washington, DC 73.0 °F
Baltimore, MD 75.0 °F
Solomons Island, MD 73.9 °F

Nearby Weather Stations